Time;durP1;ratioP1;P1;durP2;ratioP2;P2;SDS_P1;SDS_P2;PMS_P1;PMS_P2;Temp;Humidity;BMP_temperature;BMP_pressure;BME280_temperature;BME280_humidity;BME280_pressure;Samples;Min_cycle;Max_cycle;Signal;HPM_P1;HPM_P2
2022/07/07 00:02:20;;;;;;;4.57;4.28;;;;;;;21.57;55.30;94906.56;5117992;28;20188;-69
2022/07/07 00:04:46;;;;;;;4.57;4.28;;;;;;;21.58;55.43;94905.34;5117185;28;20195;-69
2022/07/07 00:07:13;;;;;;;4.78;4.40;;;;;;;21.57;55.11;94907.34;5117776;28;20222;-69
2022/07/07 00:09:40;;;;;;;4.55;4.25;;;;;;;21.56;55.13;94910.56;5116564;28;20234;-69
2022/07/07 00:12:09;;;;;;;4.70;4.40;;;;;;;21.55;55.26;94914.63;5116508;28;20191;-69
2022/07/07 00:14:36;;;;;;;4.80;4.50;;;;;;;21.52;55.52;94912.66;5116932;28;20191;-69
2022/07/07 00:17:03;;;;;;;4.45;4.20;;;;;;;21.50;55.28;94915.13;5116512;28;20188;-69
2022/07/07 00:19:30;;;;;;;4.38;4.07;;;;;;;21.50;55.25;94913.09;5116324;28;20199;-69
2022/07/07 00:21:57;;;;;;;4.85;4.50;;;;;;;21.47;55.84;94913.16;5117206;28;20206;-69
2022/07/07 00:24:23;;;;;;;4.97;4.57;;;;;;;21.48;55.48;94911.94;5117080;28;20532;-69
2022/07/07 00:26:50;;;;;;;4.65;4.35;;;;;;;21.46;55.39;94905.94;5116449;28;20195;-69
2022/07/07 00:29:18;;;;;;;4.47;4.07;;;;;;;21.47;55.27;94913.16;5116584;28;20192;-69
2022/07/07 00:31:45;;;;;;;5.07;4.68;;;;;;;21.46;55.38;94912.38;5116034;28;20213;-69
2022/07/07 00:34:12;;;;;;;4.50;4.10;;;;;;;21.46;55.28;94917.16;5116327;28;20203;-69
2022/07/07 00:36:41;;;;;;;4.05;3.85;;;;;;;21.44;54.87;94914.78;5116386;28;20211;-69
2022/07/07 00:39:08;;;;;;;4.40;4.10;;;;;;;21.41;55.18;94921.25;5115965;28;20591;-69
2022/07/07 00:41:35;;;;;;;4.47;4.18;;;;;;;21.41;55.11;94912.84;5115933;28;20192;-69
2022/07/07 00:44:02;;;;;;;4.38;4.00;;;;;;;21.38;55.13;94914.47;5116838;28;20199;-69
2022/07/07 00:46:43;;;;;;;4.43;4.03;;;;;;;21.36;55.02;94921.75;5115889;28;20203;-69
2022/07/07 00:49:10;;;;;;;4.15;3.90;;;;;;;21.32;54.98;94910.56;5115855;28;20269;-69
2022/07/07 00:51:37;;;;;;;4.15;3.85;;;;;;;21.33;55.07;94905.75;5115564;28;20227;-69
2022/07/07 00:54:05;;;;;;;4.05;3.80;;;;;;;21.28;54.81;94906.22;5116148;28;20200;-69
2022/07/07 00:56:31;;;;;;;3.78;3.58;;;;;;;21.26;54.81;94903.06;5117003;28;20180;-69
2022/07/07 00:59:02;;;;;;;3.85;3.65;;;;;;;21.25;54.85;94901.47;5115897;28;20195;-69
2022/07/07 01:01:30;;;;;;;4.10;3.80;;;;;;;21.23;54.59;94909.50;5115731;28;20287;-69
2022/07/07 01:03:59;;;;;;;3.80;3.55;;;;;;;21.22;54.58;94911.53;5116216;28;20196;-69
2022/07/07 01:06:26;;;;;;;3.90;3.70;;;;;;;21.23;54.80;94912.31;5116729;28;20253;-69
2022/07/07 01:08:53;;;;;;;3.80;3.55;;;;;;;21.19;54.66;94908.78;5115446;28;20220;-69
2022/07/07 01:11:20;;;;;;;3.80;3.60;;;;;;;21.17;54.75;94906.41;5114834;28;20287;-69
2022/07/07 01:13:47;;;;;;;3.88;3.58;;;;;;;21.12;54.74;94907.66;5115553;28;20195;-69
2022/07/07 01:16:14;;;;;;;3.95;3.65;;;;;;;21.12;54.55;94909.69;5115981;28;20199;-69
2022/07/07 01:18:44;;;;;;;4.25;3.42;;;;;;;21.13;54.82;94908.47;5115446;28;20207;-69
2022/07/07 01:21:12;;;;;;;3.85;3.60;;;;;;;21.14;54.39;94924.88;5115685;28;20291;-69
2022/07/07 01:23:41;;;;;;;3.85;3.63;;;;;;;21.11;54.60;94922.13;5115048;28;20194;-69
2022/07/07 01:26:08;;;;;;;3.95;3.63;;;;;;;21.10;54.42;94912.94;5115571;28;20260;-69
2022/07/07 01:28:34;;;;;;;4.22;3.83;;;;;;;21.08;54.49;94920.97;5116148;28;20218;-69
2022/07/07 01:31:01;;;;;;;4.05;3.65;;;;;;;21.08;54.43;94920.16;5115106;28;20202;-69
2022/07/07 01:33:28;;;;;;;3.40;3.20;;;;;;;21.05;54.56;94924.59;5115314;28;20517;-69
2022/07/07 01:35:55;;;;;;;3.65;3.35;;;;;;;21.04;54.53;94920.22;5116046;28;20521;-69
2022/07/07 01:38:21;;;;;;;3.78;3.47;;;;;;;21.05;54.52;94921.81;5114869;28;20214;-69
2022/07/07 01:40:49;;;;;;;3.80;3.50;;;;;;;21.06;54.32;94923.41;5115077;28;20208;-69
2022/07/07 01:43:16;;;;;;;4.45;4.05;;;;;;;21.04;54.18;94917.41;5114835;28;20196;-69
2022/07/07 01:45:43;;;;;;;4.22;3.65;;;;;;;21.03;54.22;94918.66;5114733;28;20200;-69
2022/07/07 01:48:10;;;;;;;3.80;3.60;;;;;;;21.01;53.97;94909.84;5114784;28;20222;-69
2022/07/07 01:50:36;;;;;;;3.55;3.25;;;;;;;20.98;54.21;94913.50;5115393;28;20191;-69
2022/07/07 01:53:03;;;;;;;3.70;3.40;;;;;;;20.98;54.05;94918.31;5114399;28;20239;-69
2022/07/07 01:55:30;;;;;;;3.60;3.30;;;;;;;20.98;54.04;94909.91;5115860;28;20180;-69
2022/07/07 01:57:58;;;;;;;3.67;3.28;;;;;;;20.95;54.59;94916.34;5115828;28;20192;-69
2022/07/07 02:00:25;;;;;;;3.80;3.50;;;;;;;20.94;53.80;94903.56;5114910;28;20200;-69
2022/07/07 02:02:52;;;;;;;3.45;3.17;;;;;;;20.91;53.88;94911.63;5115134;28;20192;-69
2022/07/07 02:05:19;;;;;;;3.13;2.92;;;;;;;20.92;53.65;94915.22;5115519;28;20184;-69
2022/07/07 02:07:47;;;;;;;3.25;3.05;;;;;;;20.88;53.79;94917.28;5114380;28;20697;-69
2022/07/07 02:11:12;;;;;;;3.13;2.92;;;;;;;20.86;53.63;94912.09;5114601;28;20199;-69
2022/07/07 02:13:03;;;;;;;3.20;3.00;;;;;;;20.86;53.28;94914.88;5114340;28;20294;-69
2022/07/07 02:15:30;;;;;;;3.10;2.90;;;;;;;20.87;53.17;94916.47;5114365;28;20202;-69
2022/07/07 02:17:57;;;;;;;2.90;2.70;;;;;;;20.85;53.37;94907.72;5115310;28;20230;-69
2022/07/07 02:20:24;;;;;;;4.28;3.58;;;;;;;20.82;53.43;94908.56;5115031;28;20207;-69
2022/07/07 02:22:50;;;;;;;3.78;3.47;;;;;;;20.85;53.60;94916.13;5118649;28;20213;-69
2022/07/07 02:25:17;;;;;;;4.43;3.67;;;;;;;20.83;53.05;94914.94;5118810;28;20203;-69
2022/07/07 02:27:44;;;;;;;2.88;2.67;;;;;;;20.79;53.09;94915.00;5118725;28;20280;-69
2022/07/07 02:30:13;;;;;;;3.28;3.08;;;;;;;20.80;53.47;94908.16;5118523;28;20199;-69
2022/07/07 02:32:39;;;;;;;2.90;2.72;;;;;;;20.79;53.55;94914.22;5118932;28;20214;-69
2022/07/07 02:35:07;;;;;;;2.80;2.60;;;;;;;20.76;53.20;94915.03;5118724;28;20183;-69
2022/07/07 02:37:34;;;;;;;2.90;2.70;;;;;;;20.72;53.27;94914.31;5118651;28;20195;-69
2022/07/07 02:40:01;;;;;;;2.72;2.47;;;;;;;20.70;53.20;94908.31;5119621;28;20260;-69
2022/07/07 02:42:27;;;;;;;2.75;2.55;;;;;;;20.68;53.10;94908.75;5119190;28;20485;-69
2022/07/07 02:44:54;;;;;;;2.70;2.50;;;;;;;20.67;53.09;94907.19;5119106;28;20202;-69
2022/07/07 02:47:23;;;;;;;2.95;2.75;;;;;;;20.64;53.36;94906.00;5118335;28;20196;-69
2022/07/07 02:49:50;;;;;;;2.60;2.40;;;;;;;20.62;53.29;94907.63;5118169;28;20215;-69
2022/07/07 02:52:17;;;;;;;3.03;2.72;;;;;;;20.60;53.13;94901.69;5118737;28;20238;-68
2022/07/07 02:54:43;;;;;;;2.80;2.60;;;;;;;20.61;53.24;94901.25;5118205;28;20199;-68
2022/07/07 02:57:10;;;;;;;2.85;2.65;;;;;;;20.61;53.07;94906.84;5118007;28;20215;-68
2022/07/07 02:59:37;;;;;;;2.90;2.70;;;;;;;20.59;53.02;94906.50;5118759;28;20176;-68
2022/07/07 03:02:05;;;;;;;3.67;2.40;;;;;;;20.59;52.90;94908.50;5118611;28;20231;-69
2022/07/07 03:04:33;;;;;;;2.35;2.25;;;;;;;20.57;53.27;94914.50;5118202;28;20192;-69
2022/07/07 03:06:59;;;;;;;2.60;2.40;;;;;;;20.58;52.87;94912.50;5118315;28;20196;-69
2022/07/07 03:09:27;;;;;;;2.58;2.47;;;;;;;20.57;52.92;94916.53;5117931;28;20215;-69
2022/07/07 03:11:54;;;;;;;3.47;2.97;;;;;;;20.56;52.78;94918.53;5117620;28;20210;-69
2022/07/07 03:14:21;;;;;;;2.95;2.70;;;;;;;20.56;53.24;94917.75;5118854;28;20194;-69
2022/07/07 03:16:48;;;;;;;2.47;2.33;;;;;;;20.55;52.73;94921.75;5118271;28;20207;-69
2022/07/07 03:19:14;;;;;;;3.03;2.72;;;;;;;20.54;52.78;94922.97;5118019;28;20638;-69
2022/07/07 03:21:42;;;;;;;2.30;2.20;;;;;;;20.54;52.96;94926.56;5117819;28;20199;-69
2022/07/07 03:24:09;;;;;;;2.53;2.42;;;;;;;20.54;52.98;94923.75;5118271;28;20208;-69
2022/07/07 03:26:36;;;;;;;2.80;2.60;;;;;;;20.53;53.07;94912.97;5118768;28;20188;-69
2022/07/07 03:29:03;;;;;;;2.50;2.40;;;;;;;20.55;52.78;94922.56;5117597;28;20218;-69
2022/07/07 03:31:29;;;;;;;2.72;2.53;;;;;;;20.54;53.03;94923.75;5117674;28;20203;-69
2022/07/07 03:33:56;;;;;;;3.28;2.40;;;;;;;20.53;53.22;94916.56;5117084;28;20191;-68
2022/07/07 03:36:23;;;;;;;2.80;2.60;;;;;;;20.54;53.16;94920.94;5118697;28;20252;-68
2022/07/07 03:38:51;;;;;;;3.08;2.88;;;;;;;20.50;52.99;94923.00;5117581;28;20188;-68
2022/07/07 03:41:18;;;;;;;3.35;3.05;;;;;;;20.48;52.97;94924.59;5118300;28;20191;-68
2022/07/07 03:43:45;;;;;;;3.25;3.05;;;;;;;20.48;52.95;94919.00;5117427;28;20204;-69
2022/07/07 03:46:12;;;;;;;3.15;2.90;;;;;;;20.46;53.00;94927.84;5117147;28;20200;-69
2022/07/07 03:48:38;;;;;;;3.35;3.10;;;;;;;20.47;53.50;94929.41;5117028;28;20216;-69
2022/07/07 03:51:06;;;;;;;3.40;3.10;;;;;;;20.47;53.24;94923.03;5116952;28;20235;-69
2022/07/07 03:53:33;;;;;;;3.63;3.33;;;;;;;20.47;53.13;94923.03;5118104;28;20283;-69
2022/07/07 03:56:02;;;;;;;3.80;3.47;;;;;;;20.48;53.20;94933.00;5117891;28;20188;-69
2022/07/07 03:58:29;;;;;;;3.30;3.00;;;;;;;20.48;53.15;94928.22;5116776;28;20629;-69
2022/07/07 04:00:56;;;;;;;2.67;2.47;;;;;;;20.48;53.08;94928.22;5117039;28;20208;-69
2022/07/07 04:03:22;;;;;;;3.28;3.00;;;;;;;20.49;53.41;94927.00;5117947;28;20176;-69
2022/07/07 04:05:50;;;;;;;2.72;2.50;;;;;;;20.49;53.14;94935.41;5116673;28;20244;-69
2022/07/07 04:08:16;;;;;;;3.22;3.03;;;;;;;20.51;53.07;94927.38;5117085;28;20212;-69
2022/07/07 04:10:44;;;;;;;3.08;2.80;;;;;;;20.51;53.37;94921.78;5117696;28;20203;-68
2022/07/07 04:13:12;;;;;;;3.63;3.30;;;;;;;20.49;53.63;94918.59;5117777;28;20184;-68
2022/07/07 04:15:39;;;;;;;2.92;2.58;;;;;;;20.53;53.56;94924.97;5117670;28;20200;-68
2022/07/07 04:18:05;;;;;;;3.10;2.70;;;;;;;20.53;53.63;94924.19;5117634;28;20195;-68
2022/07/07 04:20:32;;;;;;;2.90;2.70;;;;;;;20.52;53.51;94923.41;5117645;28;20215;-69
2022/07/07 04:22:59;;;;;;;3.50;3.13;;;;;;;20.54;53.67;94925.75;5116240;28;20627;-68
2022/07/07 04:25:26;;;;;;;3.30;3.00;;;;;;;20.55;53.56;94932.94;5116549;28;20203;-68
2022/07/07 04:27:53;;;;;;;3.05;2.85;;;;;;;20.55;53.57;94927.34;5117327;28;20198;-70
2022/07/07 04:30:21;;;;;;;3.97;3.58;;;;;;;20.56;53.93;94935.34;5117183;28;20210;-70
2022/07/07 04:32:48;;;;;;;3.40;3.10;;;;;;;20.58;53.65;94937.72;5116117;28;20611;-70
2022/07/07 04:35:15;;;;;;;3.45;3.15;;;;;;;20.57;53.86;94936.13;5116492;28;20203;-70
2022/07/07 04:37:42;;;;;;;3.95;2.88;;;;;;;20.53;54.21;94935.38;5116241;28;20623;-70
2022/07/07 04:40:09;;;;;;;3.20;3.00;;;;;;;20.54;53.80;94936.97;5115908;28;20600;-70
2022/07/07 04:42:36;;;;;;;2.90;2.70;;;;;;;20.54;54.06;94940.56;5116567;28;20206;-69
2022/07/07 04:45:03;;;;;;;3.35;3.15;;;;;;;20.57;53.29;94939.72;5115940;28;20191;-69
2022/07/07 04:47:31;;;;;;;3.13;2.92;;;;;;;20.60;53.56;94941.69;5116120;28;20207;-70
2022/07/07 04:49:58;;;;;;;3.25;2.90;;;;;;;20.59;53.46;94945.72;5117265;28;20196;-70
2022/07/07 04:52:25;;;;;;;3.25;3.00;;;;;;;20.62;53.52;94944.06;5116708;28;20231;-70
2022/07/07 04:54:52;;;;;;;2.97;2.70;;;;;;;20.63;53.50;94945.66;5117137;28;20191;-70
2022/07/07 04:57:19;;;;;;;3.20;3.00;;;;;;;20.63;53.38;94948.47;5116076;28;20600;-70
2022/07/07 04:59:46;;;;;;;3.80;3.28;;;;;;;20.63;53.61;94949.25;5116482;28;20214;-70
2022/07/07 05:02:13;;;;;;;3.20;3.00;;;;;;;20.65;53.56;94943.22;5116927;28;20191;-70
2022/07/07 05:04:41;;;;;;;2.90;2.70;;;;;;;20.67;53.29;94941.59;5115885;28;20203;-69
2022/07/07 05:07:08;;;;;;;3.10;2.90;;;;;;;20.68;53.26;94943.16;5116035;28;20207;-69
2022/07/07 05:09:35;;;;;;;3.05;2.85;;;;;;;20.68;53.14;94936.78;5116223;28;20206;-69
2022/07/07 05:12:02;;;;;;;3.22;3.03;;;;;;;20.70;53.02;94941.94;5116314;28;20264;-69
2022/07/07 05:14:29;;;;;;;3.17;2.97;;;;;;;20.70;53.12;94937.16;5116489;28;20175;-69
2022/07/07 05:16:56;;;;;;;2.80;2.60;;;;;;;20.71;53.43;94927.53;5116643;28;20192;-70
2022/07/07 05:19:23;;;;;;;3.00;2.80;;;;;;;20.76;53.59;94937.47;5115685;28;20538;-69
2022/07/07 05:21:51;;;;;;;4.88;2.97;;;;;;;20.77;53.62;94937.06;5116893;28;20180;-70
2022/07/07 05:24:18;;;;;;;2.75;2.55;;;;;;;20.79;53.19;94936.63;5115586;28;20226;-70
2022/07/07 05:26:45;;;;;;;2.60;2.40;;;;;;;20.80;53.39;94924.97;5115264;28;20199;-70
2022/07/07 05:29:12;;;;;;;3.08;2.70;;;;;;;20.83;53.13;94932.56;5115036;28;20558;-70
2022/07/07 05:31:39;;;;;;;3.20;3.00;;;;;;;20.88;53.58;94937.69;5116393;28;20184;-70
2022/07/07 05:34:05;;;;;;;3.10;2.70;;;;;;;20.91;53.62;94938.84;5115694;28;20199;-70
2022/07/07 05:36:33;;;;;;;3.00;2.70;;;;;;;20.92;53.58;94944.03;5116329;28;20191;-70
2022/07/07 05:39:01;;;;;;;3.20;2.90;;;;;;;20.95;54.18;94950.78;5115195;28;20199;-70
2022/07/07 05:41:28;;;;;;;3.13;2.92;;;;;;;20.94;54.38;94940.81;5114743;28;20188;-70
2022/07/07 05:43:55;;;;;;;3.13;2.83;;;;;;;20.98;54.28;94940.75;5114829;28;20203;-70
2022/07/07 05:46:21;;;;;;;3.80;3.20;;;;;;;21.01;54.97;94948.31;5115350;28;20195;-69
2022/07/07 05:48:48;;;;;;;2.97;2.75;;;;;;;21.05;54.64;94954.66;5115054;28;20211;-71
2022/07/07 05:51:15;;;;;;;3.67;3.40;;;;;;;21.06;55.06;94947.81;5115626;28;20243;-71
2022/07/07 05:53:42;;;;;;;3.25;3.03;;;;;;;21.08;55.31;94948.22;5114816;28;20207;-71
2022/07/07 05:56:10;;;;;;;3.20;3.00;;;;;;;21.08;55.44;94957.41;5114937;28;20183;-70
2022/07/07 05:58:37;;;;;;;7.35;6.75;;;;;;;21.11;55.45;94947.38;5115923;28;20207;-70
2022/07/07 06:01:04;;;;;;;3.80;3.50;;;;;;;21.09;55.30;94947.78;5115554;28;20562;-70
2022/07/07 06:03:31;;;;;;;3.83;3.05;;;;;;;21.13;55.10;94944.91;5114781;28;20191;-70
2022/07/07 06:05:58;;;;;;;4.40;3.22;;;;;;;21.14;54.81;94960.53;5115777;28;20187;-70
2022/07/07 06:08:27;;;;;;;6.18;3.08;;;;;;;21.12;54.68;94958.16;5114594;28;20211;-70
2022/07/07 06:10:54;;;;;;;3.10;2.90;;;;;;;21.12;54.46;94960.16;5115641;28;20256;-70
2022/07/07 06:13:22;;;;;;;3.60;3.30;;;;;;;21.12;54.25;94954.56;5115055;28;20528;-70
2022/07/07 06:15:49;;;;;;;3.50;3.20;;;;;;;21.18;54.04;94966.88;5116082;28;20214;-70
2022/07/07 06:18:16;;;;;;;5.55;3.50;;;;;;;21.19;54.14;94956.47;5116191;28;20506;-70
2022/07/07 06:20:43;;;;;;;3.70;3.25;;;;;;;21.22;53.86;94961.22;5115098;28;20188;-70
2022/07/07 06:23:10;;;;;;;3.67;3.22;;;;;;;21.29;55.99;94970.31;5114724;28;20288;-70
2022/07/07 06:25:37;;;;;;;4.15;3.85;;;;;;;21.34;53.75;94971.88;5114142;28;20195;-70
2022/07/07 06:28:05;;;;;;;3.20;2.90;;;;;;;21.31;53.20;94964.28;5114671;28;20204;-71
2022/07/07 06:30:33;;;;;;;3.10;2.90;;;;;;;21.26;52.82;94971.16;5114594;28;20218;-70
2022/07/07 06:33:00;;;;;;;2.92;2.72;;;;;;;21.25;53.29;94966.00;5115557;28;20184;-71
2022/07/07 06:35:27;;;;;;;4.75;3.08;;;;;;;21.25;52.65;94969.59;5115700;28;20210;-70
2022/07/07 06:37:54;;;;;;;2.90;2.70;;;;;;;21.26;52.84;94964.75;5115578;28;20203;-72
2022/07/07 06:40:21;;;;;;;3.22;3.03;;;;;;;21.27;52.40;94957.94;5114989;28;20196;-70
2022/07/07 06:42:48;;;;;;;3.20;2.90;;;;;;;21.22;52.37;94956.41;5114761;28;20208;-70
2022/07/07 06:45:16;;;;;;;3.20;3.00;;;;;;;21.23;52.85;94957.97;5115561;28;20182;-71
2022/07/07 06:47:44;;;;;;;3.53;3.22;;;;;;;21.26;52.75;94962.75;5114202;28;20199;-71
2022/07/07 06:50:11;;;;;;;3.28;2.92;;;;;;;21.29;53.13;94958.31;5114432;28;20306;-71
2022/07/07 06:52:38;;;;;;;3.53;3.10;;;;;;;21.35;53.50;94959.41;5114100;28;20231;-70
2022/07/07 06:55:06;;;;;;;3.00;2.80;;;;;;;21.33;52.41;94965.47;5114577;28;20207;-69
2022/07/07 06:57:33;;;;;;;3.08;2.88;;;;;;;21.29;52.48;94966.72;5114244;28;20195;-69
2022/07/07 06:59:59;;;;;;;3.00;2.80;;;;;;;21.27;52.78;94961.53;5114304;28;20215;-69
2022/07/07 07:02:26;;;;;;;5.03;3.10;;;;;;;21.28;52.61;94953.91;5114369;28;20192;-70
2022/07/07 07:04:54;;;;;;;3.35;2.95;;;;;;;21.29;52.63;94952.69;5114118;28;20207;-70
2022/07/07 07:07:21;;;;;;;3.88;3.50;;;;;;;21.31;52.80;94950.25;5116249;28;20592;-70
2022/07/07 07:09:48;;;;;;;3.78;3.42;;;;;;;21.33;53.05;94951.44;5117693;28;20636;-69
2022/07/07 07:12:15;;;;;;;2.97;2.72;;;;;;;21.34;52.85;94944.59;5119012;28;20192;-69
2022/07/07 07:14:42;;;;;;;3.50;3.20;;;;;;;21.34;52.92;94953.03;5117991;28;20203;-69
2022/07/07 07:17:08;;;;;;;3.55;3.35;;;;;;;21.34;53.02;94949.44;5118119;28;20533;-69
2022/07/07 07:19:35;;;;;;;5.88;3.40;;;;;;;21.36;54.31;94955.41;5118818;28;20196;-70
2022/07/07 07:22:04;;;;;;;4.00;2.97;;;;;;;21.48;53.98;94956.81;5118105;28;20195;-70
2022/07/07 07:24:31;;;;;;;3.28;2.97;;;;;;;21.51;53.70;94955.97;5118833;28;20199;-70
2022/07/07 07:26:57;;;;;;;4.05;3.30;;;;;;;21.48;52.89;94945.59;5119227;28;20188;-71
2022/07/07 07:29:24;;;;;;;4.10;3.80;;;;;;;21.48;52.65;94949.19;5117569;28;20208;-71
2022/07/07 07:31:51;;;;;;;3.35;3.10;;;;;;;21.50;52.89;94941.16;5118937;28;20199;-69
2022/07/07 07:34:18;;;;;;;3.97;3.67;;;;;;;21.54;52.67;94949.50;5117869;28;20206;-70
2022/07/07 07:36:45;;;;;;;4.07;3.65;;;;;;;21.59;53.60;94943.41;5117599;28;20203;-69
2022/07/07 07:39:13;;;;;;;3.35;3.05;;;;;;;21.71;51.88;94951.19;5118875;28;20198;-71
2022/07/07 07:41:41;;;;;;;3.05;2.85;;;;;;;21.69;51.63;94947.25;5118204;28;20546;-68
2022/07/07 07:44:07;;;;;;;3.55;2.83;;;;;;;21.68;51.63;94949.25;5117779;28;20210;-70
2022/07/07 07:46:34;;;;;;;4.20;2.88;;;;;;;21.71;52.21;94939.19;5118625;28;20204;-69
2022/07/07 07:49:05;;;;;;;3.50;3.20;;;;;;;21.80;51.75;94945.03;5118374;28;20210;-71
2022/07/07 07:51:32;;;;;;;4.50;3.42;;;;;;;21.79;50.66;94947.06;5117948;28;20235;-70
2022/07/07 07:53:58;;;;;;;3.58;3.00;;;;;;;21.81;51.96;94938.97;5118663;28;20194;-69
2022/07/07 07:56:27;;;;;;;4.93;3.20;;;;;;;21.88;52.50;94947.28;5118487;28;20184;-69
2022/07/07 07:58:54;;;;;;;3.45;3.15;;;;;;;22.06;50.54;94949.75;5117229;28;20241;-70
2022/07/07 08:01:21;;;;;;;6.68;3.25;;;;;;;22.08;51.77;94943.72;5118070;28;20187;-70
2022/07/07 08:03:47;;;;;;;4.05;3.20;;;;;;;22.20;53.25;94942.31;5117996;28;20543;-70
2022/07/07 08:06:14;;;;;;;3.85;3.05;;;;;;;22.31;51.44;94945.69;5117877;28;20191;-69
2022/07/07 08:08:41;;;;;;;5.00;3.30;;;;;;;22.37;51.40;94943.97;5117031;28;20200;-69
2022/07/07 08:11:08;;;;;;;4.15;2.65;;;;;;;22.52;52.74;94944.47;5117934;28;20207;-68
2022/07/07 08:13:36;;;;;;;3.72;2.80;;;;;;;22.70;51.61;94949.72;5116845;28;20214;-69
2022/07/07 08:16:03;;;;;;;3.30;3.10;;;;;;;22.71;48.61;94946.47;5117924;28;20176;-69
2022/07/07 08:18:30;;;;;;;3.58;2.70;;;;;;;22.63;48.19;94950.66;5117280;28;20196;-69
2022/07/07 08:20:56;;;;;;;4.43;3.17;;;;;;;22.59;49.08;94955.56;5117834;28;20260;-69
2022/07/07 08:23:23;;;;;;;2.60;2.40;;;;;;;22.65;49.77;94944.59;5116469;28;20203;-69
2022/07/07 08:25:50;;;;;;;3.70;2.50;;;;;;;22.70;50.18;94944.09;5116327;28;20199;-69
2022/07/07 08:28:17;;;;;;;3.22;2.90;;;;;;;22.79;50.81;94950.69;5116682;28;20200;-69
2022/07/07 08:30:45;;;;;;;7.25;2.75;;;;;;;22.92;50.99;94952.88;5116105;28;20211;-69
2022/07/07 08:33:11;;;;;;;5.70;3.42;;;;;;;22.95;49.42;94935.94;5116600;28;20188;-69
2022/07/07 08:35:38;;;;;;;2.83;2.60;;;;;;;22.90;48.27;94942.00;5116496;28;20212;-69
2022/07/07 08:38:06;;;;;;;2.85;2.60;;;;;;;22.86;48.42;94952.56;5116836;28;20196;-69
2022/07/07 08:40:32;;;;;;;8.15;3.40;;;;;;;22.89;50.25;94959.34;5116195;28;20627;-69
2022/07/07 08:42:59;;;;;;;4.47;3.10;;;;;;;22.98;49.33;94951.13;5116382;28;20207;-69
2022/07/07 08:45:26;;;;;;;3.97;3.00;;;;;;;23.04;48.93;94955.78;5116305;28;20209;-69
2022/07/07 08:47:55;;;;;;;3.22;2.95;;;;;;;23.09;47.74;94957.28;5115866;28;20210;-70
2022/07/07 08:50:22;;;;;;;3.95;3.03;;;;;;;23.18;48.63;94967.94;5116446;28;20223;-69
2022/07/07 08:52:51;;;;;;;3.25;2.75;;;;;;;23.16;48.11;94954.31;5115612;28;20240;-70
2022/07/07 08:55:21;;;;;;;2.63;2.47;;;;;;;23.18;48.84;94945.44;5116176;28;20587;-70
2022/07/07 08:57:50;;;;;;;4.40;3.30;;;;;;;23.21;48.79;94951.00;5116269;28;20200;-71
2022/07/07 09:00:17;;;;;;;3.10;2.90;;;;;;;23.20;47.17;94946.59;5117010;28;20184;-71
2022/07/07 09:02:44;;;;;;;3.00;2.80;;;;;;;23.13;47.10;94945.94;5116979;28;20188;-72
2022/07/07 09:05:12;;;;;;;3.03;2.80;;;;;;;23.10;47.62;94946.84;5116801;28;20188;-70
2022/07/07 09:07:47;;;;;;;4.82;3.58;;;;;;;23.19;49.94;94941.38;5116312;28;20188;-71
2022/07/07 09:10:28;;;;;;;3.42;3.00;;;;;;;23.24;48.19;94940.84;5116681;28;20214;-71
2022/07/07 09:12:55;;;;;;;3.08;2.75;;;;;;;23.28;47.98;94947.22;5116672;28;20256;-71
2022/07/07 09:15:22;;;;;;;3.00;2.67;;;;;;;23.33;47.54;94946.69;5115813;28;20200;-72
2022/07/07 09:17:49;;;;;;;3.17;2.88;;;;;;;23.41;48.39;94942.44;5115944;28;20195;-73
2022/07/07 09:20:18;;;;;;;3.20;2.92;;;;;;;23.52;49.15;94945.78;5116862;28;20184;-71
2022/07/07 09:22:47;;;;;;;3.05;2.70;;;;;;;23.66;49.01;94946.69;5115614;28;20191;-71
2022/07/07 09:25:14;;;;;;;4.43;3.03;;;;;;;23.65;49.29;94937.44;5115454;28;20204;-72
2022/07/07 09:27:50;;;;;;;3.50;2.90;;;;;;;23.70;49.28;94944.59;5115365;28;20188;-71
2022/07/07 09:30:31;;;;;;;2.85;2.65;;;;;;;23.79;49.31;94941.94;5114859;28;20220;-71
2022/07/07 09:32:58;;;;;;;3.45;3.10;;;;;;;23.92;48.17;94942.78;5115547;28;20191;-70
2022/07/07 09:38:16;;;;;;;3.15;2.83;;;;;;;24.03;46.82;94946.09;5115752;28;20332;-70
2022/07/07 09:41:02;;;;;;;3.08;2.88;;;;;;;24.08;48.49;94936.34;5116137;28;20187;-70
2022/07/07 09:43:31;;;;;;;3.20;2.90;;;;;;;24.21;46.80;94931.53;5115107;28;20210;-70
2022/07/07 09:46:10;;;;;;;3.10;2.90;;;;;;;24.16;46.94;94929.28;5115563;28;20277;-70
2022/07/07 09:48:37;;;;;;;3.10;2.90;;;;;;;24.19;47.69;94928.38;5115935;28;20217;-70
2022/07/07 09:51:14;;;;;;;3.17;2.97;;;;;;;24.28;47.22;94936.19;5114786;28;20247;-71
2022/07/07 09:54:00;;;;;;;2.55;2.45;;;;;;;24.37;46.54;94929.91;5115864;28;20180;-70
2022/07/07 09:56:29;;;;;;;3.13;2.80;;;;;;;24.40;45.83;94931.84;5116133;28;20188;-70
2022/07/07 09:58:56;;;;;;;3.13;2.92;;;;;;;24.34;46.51;94933.63;5114987;28;20211;-70
2022/07/07 10:01:25;;;;;;;3.10;2.90;;;;;;;24.29;46.54;94936.97;5115871;28;20180;-71
2022/07/07 10:03:55;;;;;;;3.38;2.70;;;;;;;24.32;47.36;94924.81;5115775;28;20188;-70
2022/07/07 10:06:24;;;;;;;3.10;2.80;;;;;;;24.26;45.92;94931.00;5115728;28;20219;-71
2022/07/07 10:08:56;;;;;;;2.97;2.78;;;;;;;24.24;46.61;94924.22;5114931;28;20199;-70
2022/07/07 10:11:24;;;;;;;2.83;2.60;;;;;;;24.29;47.30;94928.53;5115330;28;20599;-71
2022/07/07 10:13:51;;;;;;;2.75;2.55;;;;;;;24.43;45.41;94920.47;5115485;28;20223;-70
2022/07/07 10:16:20;;;;;;;3.05;2.85;;;;;;;24.51;45.64;94918.25;5115276;28;20200;-70
2022/07/07 10:18:47;;;;;;;2.55;2.42;;;;;;;24.57;46.55;94916.47;5114650;28;20240;-70
2022/07/07 10:21:14;;;;;;;3.00;2.80;;;;;;;24.58;46.48;94909.56;5115637;28;20230;-70
2022/07/07 10:23:43;;;;;;;2.75;2.55;;;;;;;24.72;48.11;94908.34;5115298;28;20211;-70
2022/07/07 10:26:10;;;;;;;3.08;2.80;;;;;;;24.80;45.72;94909.75;5115263;28;20527;-70
2022/07/07 10:28:51;;;;;;;2.97;2.78;;;;;;;24.85;45.88;94908.38;5115604;28;20196;-70
2022/07/07 10:31:21;;;;;;;3.85;3.15;;;;;;;24.84;45.83;94909.63;5115517;28;20231;-70
2022/07/07 10:33:55;;;;;;;5.45;3.10;;;;;;;24.78;45.37;94902.97;5115115;28;20516;-71
2022/07/07 10:36:21;;;;;;;4.00;3.30;;;;;;;24.65;45.01;94906.53;5115424;28;20184;-70
2022/07/07 10:38:52;;;;;;;3.17;2.97;;;;;;;24.71;46.96;94906.78;5115389;28;20191;-71
2022/07/07 10:41:23;;;;;;;3.30;2.88;;;;;;;24.87;47.91;94909.50;5115166;28;20604;-70
2022/07/07 10:43:59;;;;;;;3.13;2.92;;;;;;;25.00;46.38;94889.78;5119012;28;20192;-70
2022/07/07 10:46:25;;;;;;;3.25;2.80;;;;;;;25.15;46.84;94890.13;5119449;28;20183;-71
2022/07/07 10:48:55;;;;;;;2.80;2.60;;;;;;;25.20;45.25;94889.56;5118792;28;20203;-70
2022/07/07 10:51:22;;;;;;;3.00;2.80;;;;;;;25.13;45.52;94884.94;5118182;28;20239;-71
2022/07/07 10:53:57;;;;;;;3.13;2.90;;;;;;;24.98;44.77;94890.22;5118483;28;20199;-70
2022/07/07 10:56:26;;;;;;;2.95;2.75;;;;;;;24.85;45.64;94892.25;5119010;28;20194;-71
2022/07/07 10:58:54;;;;;;;3.60;3.00;;;;;;;24.81;46.23;94896.44;5119185;28;20210;-70
2022/07/07 11:01:21;;;;;;;3.55;3.25;;;;;;;24.77;45.72;94898.56;5119180;28;20184;-70
2022/07/07 11:03:48;;;;;;;3.17;2.88;;;;;;;24.82;46.65;94893.16;5119079;28;20205;-70
2022/07/07 11:06:15;;;;;;;3.22;2.63;;;;;;;25.01;47.88;94882.09;5119079;28;20207;-71
2022/07/07 11:08:42;;;;;;;3.08;2.88;;;;;;;25.16;47.29;94883.25;5119034;28;20196;-70
2022/07/07 11:11:10;;;;;;;3.20;2.90;;;;;;;25.34;45.92;94877.78;5118757;28;20218;-70
2022/07/07 11:13:39;;;;;;;2.75;2.53;;;;;;;25.38;44.37;94886.16;5118049;28;20245;-70
2022/07/07 11:16:21;;;;;;;3.53;2.75;;;;;;;25.41;44.75;94877.56;5118581;28;20560;-70
2022/07/07 11:18:50;;;;;;;3.05;2.78;;;;;;;25.39;44.54;94880.06;5118081;28;20210;-70
2022/07/07 11:21:18;;;;;;;3.10;2.90;;;;;;;25.52;44.43;94859.47;5118831;28;20192;-70
2022/07/07 11:23:48;;;;;;;4.05;3.25;;;;;;;25.66;44.36;94867.47;5118703;28;20183;-70
2022/07/07 11:26:17;;;;;;;2.90;2.70;;;;;;;25.71;45.06;94852.78;5117964;28;20219;-70
2022/07/07 11:28:44;;;;;;;2.90;2.70;;;;;;;25.80;45.88;94852.88;5118664;28;20176;-70
2022/07/07 11:31:12;;;;;;;6.35;3.10;;;;;;;25.85;44.62;94845.84;5118267;28;20203;-70
2022/07/07 11:33:39;;;;;;;3.75;3.38;;;;;;;25.76;43.81;94849.34;5117654;28;20206;-70
2022/07/07 11:36:14;;;;;;;3.78;3.30;;;;;;;25.69;44.02;94855.25;5117659;28;20199;-70
2022/07/07 11:38:42;;;;;;;3.10;2.90;;;;;;;25.61;44.92;94840.59;5117754;28;20198;-70
2022/07/07 11:41:09;;;;;;;3.35;3.10;;;;;;;25.72;43.47;94840.22;5117489;28;20192;-70